sensor_id;sensor_type;location;lat;lon;timestamp;P1;durP1;ratioP1;P2;durP2;ratioP2
14486;SDS011;7329;50.866;4.366;2022-11-28T00:00:31;5.80;;;3.45;;
14486;SDS011;7329;50.866;4.366;2022-11-28T00:02:34;4.25;;;3.35;;
14486;SDS011;7329;50.866;4.366;2022-11-28T00:04:37;5.43;;;3.60;;
14486;SDS011;7329;50.866;4.366;2022-11-28T00:06:40;4.88;;;3.78;;
14486;SDS011;7329;50.866;4.366;2022-11-28T00:08:44;4.25;;;3.45;;
14486;SDS011;7329;50.866;4.366;2022-11-28T00:10:47;4.55;;;3.50;;
14486;SDS011;7329;50.866;4.366;2022-11-28T00:12:49;4.82;;;3.53;;
14486;SDS011;7329;50.866;4.366;2022-11-28T00:14:51;4.78;;;3.78;;
14486;SDS011;7329;50.866;4.366;2022-11-28T00:16:54;4.78;;;3.33;;
14486;SDS011;7329;50.866;4.366;2022-11-28T00:18:58;4.40;;;3.42;;
14486;SDS011;7329;50.866;4.366;2022-11-28T00:21:02;4.30;;;3.53;;
14486;SDS011;7329;50.866;4.366;2022-11-28T00:23:06;4.60;;;3.63;;
14486;SDS011;7329;50.866;4.366;2022-11-28T00:25:08;4.23;;;3.40;;
14486;SDS011;7329;50.866;4.366;2022-11-28T00:27:10;5.22;;;4.22;;
14486;SDS011;7329;50.866;4.366;2022-11-28T00:29:13;4.15;;;3.47;;
14486;SDS011;7329;50.866;4.366;2022-11-28T00:31:16;4.53;;;3.25;;
14486;SDS011;7329;50.866;4.366;2022-11-28T00:33:20;4.82;;;3.22;;
14486;SDS011;7329;50.866;4.366;2022-11-28T00:35:24;4.80;;;3.63;;
14486;SDS011;7329;50.866;4.366;2022-11-28T00:37:26;5.78;;;3.72;;
14486;SDS011;7329;50.866;4.366;2022-11-28T00:39:28;4.75;;;3.38;;
14486;SDS011;7329;50.866;4.366;2022-11-28T00:41:31;3.85;;;3.30;;
14486;SDS011;7329;50.866;4.366;2022-11-28T00:43:34;4.03;;;3.35;;
14486;SDS011;7329;50.866;4.366;2022-11-28T00:45:37;4.15;;;3.30;;
14486;SDS011;7329;50.866;4.366;2022-11-28T00:47:40;4.20;;;3.33;;
14486;SDS011;7329;50.866;4.366;2022-11-28T00:49:42;3.80;;;3.40;;
14486;SDS011;7329;50.866;4.366;2022-11-28T00:51:46;4.80;;;3.60;;
14486;SDS011;7329;50.866;4.366;2022-11-28T00:53:49;3.22;;;2.92;;
14486;SDS011;7329;50.866;4.366;2022-11-28T00:55:53;4.80;;;3.38;;
14486;SDS011;7329;50.866;4.366;2022-11-28T00:57:55;3.92;;;3.22;;
14486;SDS011;7329;50.866;4.366;2022-11-28T00:59:58;3.67;;;3.05;;
14486;SDS011;7329;50.866;4.366;2022-11-28T01:02:00;4.43;;;3.28;;
14486;SDS011;7329;50.866;4.366;2022-11-28T01:04:03;4.90;;;3.35;;
14486;SDS011;7329;50.866;4.366;2022-11-28T01:06:08;3.55;;;3.05;;
14486;SDS011;7329;50.866;4.366;2022-11-28T01:08:12;7.97;;;3.45;;
14486;SDS011;7329;50.866;4.366;2022-11-28T01:10:14;5.38;;;3.60;;
14486;SDS011;7329;50.866;4.366;2022-11-28T01:12:17;4.05;;;3.20;;
14486;SDS011;7329;50.866;4.366;2022-11-28T01:14:20;4.22;;;3.30;;
14486;SDS011;7329;50.866;4.366;2022-11-28T01:16:23;3.40;;;3.10;;
14486;SDS011;7329;50.866;4.366;2022-11-28T01:18:26;4.53;;;3.55;;
14486;SDS011;7329;50.866;4.366;2022-11-28T01:20:28;4.63;;;3.35;;
14486;SDS011;7329;50.866;4.366;2022-11-28T01:22:30;4.25;;;3.13;;
14486;SDS011;7329;50.866;4.366;2022-11-28T01:24:34;4.15;;;3.15;;
14486;SDS011;7329;50.866;4.366;2022-11-28T01:26:37;4.10;;;3.47;;
14486;SDS011;7329;50.866;4.366;2022-11-28T01:28:40;4.53;;;3.20;;
14486;SDS011;7329;50.866;4.366;2022-11-28T01:30:43;2.97;;;2.63;;
14486;SDS011;7329;50.866;4.366;2022-11-28T01:32:45;4.03;;;3.10;;
14486;SDS011;7329;50.866;4.366;2022-11-28T01:34:47;4.45;;;3.53;;
14486;SDS011;7329;50.866;4.366;2022-11-28T01:36:50;3.33;;;3.00;;
14486;SDS011;7329;50.866;4.366;2022-11-28T01:38:52;4.25;;;3.42;;
14486;SDS011;7329;50.866;4.366;2022-11-28T01:40:56;3.88;;;3.30;;
14486;SDS011;7329;50.866;4.366;2022-11-28T01:42:58;3.35;;;3.05;;
14486;SDS011;7329;50.866;4.366;2022-11-28T01:45:03;4.32;;;2.88;;
14486;SDS011;7329;50.866;4.366;2022-11-28T01:47:09;3.22;;;2.92;;
14486;SDS011;7329;50.866;4.366;2022-11-28T01:49:13;4.85;;;3.17;;
14486;SDS011;7329;50.866;4.366;2022-11-28T01:51:18;3.35;;;3.05;;
14486;SDS011;7329;50.866;4.366;2022-11-28T01:53:21;3.30;;;2.80;;
14486;SDS011;7329;50.866;4.366;2022-11-28T01:55:25;3.75;;;2.88;;
14486;SDS011;7329;50.866;4.366;2022-11-28T01:57:32;4.05;;;3.33;;
14486;SDS011;7329;50.866;4.366;2022-11-28T01:59:36;4.57;;;3.10;;
14486;SDS011;7329;50.866;4.366;2022-11-28T02:01:43;3.83;;;3.00;;
14486;SDS011;7329;50.866;4.366;2022-11-28T02:03:46;3.30;;;2.75;;
14486;SDS011;7329;50.866;4.366;2022-11-28T02:05:50;3.28;;;2.95;;
14486;SDS011;7329;50.866;4.366;2022-11-28T02:07:53;3.80;;;2.72;;
14486;SDS011;7329;50.866;4.366;2022-11-28T02:09:55;3.30;;;2.60;;
14486;SDS011;7329;50.866;4.366;2022-11-28T02:12:05;4.60;;;3.00;;
14486;SDS011;7329;50.866;4.366;2022-11-28T02:14:19;3.65;;;3.13;;
14486;SDS011;7329;50.866;4.366;2022-11-28T02:16:33;3.60;;;2.90;;
14486;SDS011;7329;50.866;4.366;2022-11-28T02:18:50;3.35;;;2.63;;
14486;SDS011;7329;50.866;4.366;2022-11-28T02:21:05;3.47;;;3.03;;
14486;SDS011;7329;50.866;4.366;2022-11-28T02:23:27;5.50;;;3.10;;
14486;SDS011;7329;50.866;4.366;2022-11-28T02:28:28;3.08;;;2.63;;
14486;SDS011;7329;50.866;4.366;2022-11-28T02:30:42;4.15;;;2.92;;
14486;SDS011;7329;50.866;4.366;2022-11-28T02:33:07;3.60;;;3.00;;
14486;SDS011;7329;50.866;4.366;2022-11-28T02:35:14;3.15;;;2.45;;
14486;SDS011;7329;50.866;4.366;2022-11-28T02:37:23;3.40;;;2.95;;
14486;SDS011;7329;50.866;4.366;2022-11-28T02:39:32;3.10;;;2.72;;
14486;SDS011;7329;50.866;4.366;2022-11-28T02:41:40;3.50;;;2.63;;
14486;SDS011;7329;50.866;4.366;2022-11-28T02:43:49;3.17;;;2.55;;
14486;SDS011;7329;50.866;4.366;2022-11-28T02:45:56;3.13;;;2.63;;
14486;SDS011;7329;50.866;4.366;2022-11-28T02:48:05;3.25;;;2.60;;
14486;SDS011;7329;50.866;4.366;2022-11-28T02:50:14;3.67;;;2.83;;
14486;SDS011;7329;50.866;4.366;2022-11-28T02:52:23;3.05;;;2.75;;
14486;SDS011;7329;50.866;4.366;2022-11-28T02:54:28;3.47;;;2.60;;
14486;SDS011;7329;50.866;4.366;2022-11-28T02:56:32;3.58;;;2.70;;
14486;SDS011;7329;50.866;4.366;2022-11-28T02:58:34;3.22;;;2.72;;
14486;SDS011;7329;50.866;4.366;2022-11-28T03:00:40;3.85;;;2.95;;
14486;SDS011;7329;50.866;4.366;2022-11-28T03:02:44;2.85;;;2.53;;
14486;SDS011;7329;50.866;4.366;2022-11-28T03:04:54;3.25;;;2.85;;
14486;SDS011;7329;50.866;4.366;2022-11-28T03:07:03;3.05;;;2.75;;
14486;SDS011;7329;50.866;4.366;2022-11-28T03:09:17;3.92;;;2.67;;
14486;SDS011;7329;50.866;4.366;2022-11-28T03:11:35;2.92;;;2.60;;
14486;SDS011;7329;50.866;4.366;2022-11-28T03:13:49;3.67;;;2.70;;
14486;SDS011;7329;50.866;4.366;2022-11-28T03:15:58;2.90;;;2.55;;
14486;SDS011;7329;50.866;4.366;2022-11-28T03:18:08;3.42;;;2.45;;
14486;SDS011;7329;50.866;4.366;2022-11-28T03:20:22;2.90;;;2.50;;
14486;SDS011;7329;50.866;4.366;2022-11-28T03:22:29;2.72;;;2.50;;
14486;SDS011;7329;50.866;4.366;2022-11-28T03:24:39;3.45;;;2.92;;
14486;SDS011;7329;50.866;4.366;2022-11-28T03:26:46;3.55;;;2.85;;
14486;SDS011;7329;50.866;4.366;2022-11-28T03:28:56;3.35;;;2.78;;
14486;SDS011;7329;50.866;4.366;2022-11-28T03:31:05;3.53;;;2.55;;
14486;SDS011;7329;50.866;4.366;2022-11-28T03:33:11;2.97;;;2.65;;
14486;SDS011;7329;50.866;4.366;2022-11-28T03:35:17;3.35;;;2.63;;
14486;SDS011;7329;50.866;4.366;2022-11-28T03:37:32;2.88;;;2.50;;
14486;SDS011;7329;50.866;4.366;2022-11-28T03:39:41;3.65;;;2.80;;
14486;SDS011;7329;50.866;4.366;2022-11-28T03:41:48;2.97;;;2.33;;
14486;SDS011;7329;50.866;4.366;2022-11-28T03:43:55;3.67;;;2.85;;
14486;SDS011;7329;50.866;4.366;2022-11-28T03:46:00;3.55;;;2.50;;
14486;SDS011;7329;50.866;4.366;2022-11-28T03:48:07;3.15;;;2.53;;
14486;SDS011;7329;50.866;4.366;2022-11-28T03:50:14;2.67;;;2.42;;
14486;SDS011;7329;50.866;4.366;2022-11-28T03:52:22;2.95;;;2.50;;
14486;SDS011;7329;50.866;4.366;2022-11-28T03:54:33;3.35;;;2.40;;
14486;SDS011;7329;50.866;4.366;2022-11-28T03:56:38;2.58;;;2.38;;
14486;SDS011;7329;50.866;4.366;2022-11-28T03:58:46;3.00;;;2.25;;
14486;SDS011;7329;50.866;4.366;2022-11-28T04:00:55;3.20;;;2.45;;
14486;SDS011;7329;50.866;4.366;2022-11-28T04:03:06;4.40;;;2.92;;
14486;SDS011;7329;50.866;4.366;2022-11-28T04:05:14;3.63;;;2.67;;
14486;SDS011;7329;50.866;4.366;2022-11-28T04:07:23;2.75;;;2.35;;
14486;SDS011;7329;50.866;4.366;2022-11-28T04:09:34;3.67;;;2.65;;
14486;SDS011;7329;50.866;4.366;2022-11-28T04:11:41;2.72;;;2.47;;
14486;SDS011;7329;50.866;4.366;2022-11-28T04:13:47;2.40;;;2.13;;
14486;SDS011;7329;50.866;4.366;2022-11-28T04:15:54;2.65;;;2.20;;
14486;SDS011;7329;50.866;4.366;2022-11-28T04:18:02;3.42;;;2.50;;
14486;SDS011;7329;50.866;4.366;2022-11-28T04:20:12;2.97;;;2.50;;
14486;SDS011;7329;50.866;4.366;2022-11-28T04:22:21;2.88;;;2.53;;
14486;SDS011;7329;50.866;4.366;2022-11-28T04:24:26;3.55;;;2.67;;
14486;SDS011;7329;50.866;4.366;2022-11-28T04:26:34;3.33;;;2.60;;
14486;SDS011;7329;50.866;4.366;2022-11-28T04:28:39;3.08;;;2.58;;
14486;SDS011;7329;50.866;4.366;2022-11-28T04:30:42;4.30;;;2.25;;
14486;SDS011;7329;50.866;4.366;2022-11-28T04:32:48;2.75;;;2.17;;
14486;SDS011;7329;50.866;4.366;2022-11-28T04:34:55;3.40;;;2.58;;
14486;SDS011;7329;50.866;4.366;2022-11-28T04:37:03;2.30;;;2.10;;
14486;SDS011;7329;50.866;4.366;2022-11-28T04:39:09;2.50;;;2.30;;
14486;SDS011;7329;50.866;4.366;2022-11-28T04:41:15;2.75;;;2.00;;
14486;SDS011;7329;50.866;4.366;2022-11-28T04:43:23;2.63;;;2.33;;
14486;SDS011;7329;50.866;4.366;2022-11-28T04:45:31;2.58;;;2.20;;
14486;SDS011;7329;50.866;4.366;2022-11-28T04:47:36;2.22;;;2.03;;
14486;SDS011;7329;50.866;4.366;2022-11-28T04:49:38;2.85;;;2.20;;
14486;SDS011;7329;50.866;4.366;2022-11-28T04:51:42;2.60;;;2.20;;
14486;SDS011;7329;50.866;4.366;2022-11-28T04:53:51;2.45;;;2.08;;
14486;SDS011;7329;50.866;4.366;2022-11-28T04:56:01;2.95;;;2.40;;
14486;SDS011;7329;50.866;4.366;2022-11-28T04:58:08;2.72;;;2.20;;
14486;SDS011;7329;50.866;4.366;2022-11-28T05:00:17;3.13;;;2.20;;
14486;SDS011;7329;50.866;4.366;2022-11-28T05:02:20;2.20;;;1.98;;
14486;SDS011;7329;50.866;4.366;2022-11-28T05:04:25;3.00;;;2.05;;
14486;SDS011;7329;50.866;4.366;2022-11-28T05:06:28;3.08;;;2.35;;
14486;SDS011;7329;50.866;4.366;2022-11-28T05:08:32;2.45;;;2.25;;
14486;SDS011;7329;50.866;4.366;2022-11-28T05:10:34;2.40;;;2.00;;
14486;SDS011;7329;50.866;4.366;2022-11-28T05:12:36;2.43;;;1.90;;
14486;SDS011;7329;50.866;4.366;2022-11-28T05:14:39;2.55;;;2.20;;
14486;SDS011;7329;50.866;4.366;2022-11-28T05:16:43;2.30;;;1.97;;
14486;SDS011;7329;50.866;4.366;2022-11-28T05:18:45;2.95;;;2.47;;
14486;SDS011;7329;50.866;4.366;2022-11-28T05:20:47;2.78;;;2.30;;
14486;SDS011;7329;50.866;4.366;2022-11-28T05:22:50;2.47;;;2.22;;
14486;SDS011;7329;50.866;4.366;2022-11-28T05:24:52;3.37;;;2.50;;
14486;SDS011;7329;50.866;4.366;2022-11-28T05:26:54;2.45;;;2.03;;
14486;SDS011;7329;50.866;4.366;2022-11-28T05:28:57;2.72;;;2.20;;
14486;SDS011;7329;50.866;4.366;2022-11-28T05:31:00;2.67;;;2.45;;
14486;SDS011;7329;50.866;4.366;2022-11-28T05:33:04;2.20;;;2.00;;
14486;SDS011;7329;50.866;4.366;2022-11-28T05:35:07;2.80;;;2.30;;
14486;SDS011;7329;50.866;4.366;2022-11-28T05:37:09;2.30;;;2.00;;
14486;SDS011;7329;50.866;4.366;2022-11-28T05:39:12;2.60;;;2.10;;
14486;SDS011;7329;50.866;4.366;2022-11-28T05:41:17;2.45;;;1.95;;
14486;SDS011;7329;50.866;4.366;2022-11-28T05:43:21;2.60;;;2.03;;
14486;SDS011;7329;50.866;4.366;2022-11-28T05:45:23;2.47;;;2.20;;
14486;SDS011;7329;50.866;4.366;2022-11-28T05:47:25;3.47;;;2.25;;
14486;SDS011;7329;50.866;4.366;2022-11-28T05:49:31;2.55;;;1.98;;
14486;SDS011;7329;50.866;4.366;2022-11-28T05:51:33;3.03;;;2.42;;
14486;SDS011;7329;50.866;4.366;2022-11-28T05:53:36;2.08;;;1.85;;
14486;SDS011;7329;50.866;4.366;2022-11-28T05:55:38;3.05;;;2.30;;
14486;SDS011;7329;50.866;4.366;2022-11-28T05:57:41;2.22;;;1.98;;
14486;SDS011;7329;50.866;4.366;2022-11-28T05:59:43;2.88;;;1.95;;
14486;SDS011;7329;50.866;4.366;2022-11-28T06:01:45;2.20;;;2.00;;
14486;SDS011;7329;50.866;4.366;2022-11-28T06:03:48;2.08;;;1.85;;
14486;SDS011;7329;50.866;4.366;2022-11-28T06:05:52;2.60;;;1.83;;
14486;SDS011;7329;50.866;4.366;2022-11-28T06:07:55;2.15;;;1.95;;
14486;SDS011;7329;50.866;4.366;2022-11-28T06:09:57;3.03;;;2.13;;
14486;SDS011;7329;50.866;4.366;2022-11-28T06:11:59;2.70;;;2.00;;
14486;SDS011;7329;50.866;4.366;2022-11-28T06:14:02;3.10;;;2.05;;
14486;SDS011;7329;50.866;4.366;2022-11-28T06:16:06;3.03;;;2.00;;
14486;SDS011;7329;50.866;4.366;2022-11-28T06:18:09;2.60;;;2.10;;
14486;SDS011;7329;50.866;4.366;2022-11-28T06:20:11;2.47;;;1.95;;
14486;SDS011;7329;50.866;4.366;2022-11-28T06:22:15;2.50;;;2.10;;
14486;SDS011;7329;50.866;4.366;2022-11-28T06:24:17;2.13;;;1.90;;
14486;SDS011;7329;50.866;4.366;2022-11-28T06:26:20;2.03;;;1.83;;
14486;SDS011;7329;50.866;4.366;2022-11-28T06:28:24;2.42;;;2.15;;
14486;SDS011;7329;50.866;4.366;2022-11-28T06:30:26;2.40;;;1.77;;
14486;SDS011;7329;50.866;4.366;2022-11-28T06:32:28;1.85;;;1.75;;
14486;SDS011;7329;50.866;4.366;2022-11-28T06:34:31;2.42;;;1.83;;
14486;SDS011;7329;50.866;4.366;2022-11-28T06:36:33;2.10;;;1.90;;
14486;SDS011;7329;50.866;4.366;2022-11-28T06:38:37;2.15;;;1.95;;
14486;SDS011;7329;50.866;4.366;2022-11-28T06:40:39;2.28;;;2.00;;
14486;SDS011;7329;50.866;4.366;2022-11-28T06:42:41;2.30;;;1.95;;
14486;SDS011;7329;50.866;4.366;2022-11-28T06:44:44;3.60;;;2.08;;
14486;SDS011;7329;50.866;4.366;2022-11-28T06:46:46;2.58;;;1.85;;
14486;SDS011;7329;50.866;4.366;2022-11-28T06:48:49;3.10;;;2.17;;
14486;SDS011;7329;50.866;4.366;2022-11-28T06:50:52;2.50;;;1.88;;
14486;SDS011;7329;50.866;4.366;2022-11-28T06:52:55;2.10;;;1.83;;
14486;SDS011;7329;50.866;4.366;2022-11-28T06:54:58;2.40;;;2.20;;
14486;SDS011;7329;50.866;4.366;2022-11-28T06:57:01;2.25;;;2.00;;
14486;SDS011;7329;50.866;4.366;2022-11-28T06:59:03;2.00;;;1.75;;
14486;SDS011;7329;50.866;4.366;2022-11-28T07:01:06;2.28;;;1.80;;
14486;SDS011;7329;50.866;4.366;2022-11-28T07:03:09;2.35;;;2.15;;
14486;SDS011;7329;50.866;4.366;2022-11-28T07:05:12;2.65;;;1.73;;
14486;SDS011;7329;50.866;4.366;2022-11-28T07:07:16;2.10;;;1.90;;
14486;SDS011;7329;50.866;4.366;2022-11-28T07:09:19;2.67;;;1.92;;
14486;SDS011;7329;50.866;4.366;2022-11-28T07:11:23;2.10;;;1.88;;
14486;SDS011;7329;50.866;4.366;2022-11-28T07:13:27;2.22;;;1.67;;
14486;SDS011;7329;50.866;4.366;2022-11-28T07:15:29;1.80;;;1.70;;
14486;SDS011;7329;50.866;4.366;2022-11-28T07:17:32;2.13;;;1.70;;
14486;SDS011;7329;50.866;4.366;2022-11-28T07:19:35;2.20;;;1.80;;
14486;SDS011;7329;50.866;4.366;2022-11-28T07:21:37;2.25;;;1.70;;
14486;SDS011;7329;50.866;4.366;2022-11-28T07:23:41;1.92;;;1.80;;
14486;SDS011;7329;50.866;4.366;2022-11-28T07:25:44;1.60;;;1.50;;
14486;SDS011;7329;50.866;4.366;2022-11-28T07:27:48;2.00;;;1.80;;
14486;SDS011;7329;50.866;4.366;2022-11-28T07:29:50;2.33;;;1.95;;
14486;SDS011;7329;50.866;4.366;2022-11-28T07:31:52;2.13;;;1.77;;
14486;SDS011;7329;50.866;4.366;2022-11-28T07:33:54;2.10;;;1.83;;
14486;SDS011;7329;50.866;4.366;2022-11-28T07:36:00;1.95;;;1.67;;
14486;SDS011;7329;50.866;4.366;2022-11-28T07:38:02;2.05;;;1.80;;
14486;SDS011;7329;50.866;4.366;2022-11-28T07:40:05;2.03;;;1.75;;
14486;SDS011;7329;50.866;4.366;2022-11-28T07:42:08;1.75;;;1.60;;
14486;SDS011;7329;50.866;4.366;2022-11-28T07:44:12;1.98;;;1.70;;
14486;SDS011;7329;50.866;4.366;2022-11-28T07:46:17;2.30;;;1.55;;
14486;SDS011;7329;50.866;4.366;2022-11-28T07:48:20;1.42;;;1.30;;
14486;SDS011;7329;50.866;4.366;2022-11-28T07:50:23;2.05;;;1.70;;
14486;SDS011;7329;50.866;4.366;2022-11-28T07:52:25;2.38;;;1.63;;
14486;SDS011;7329;50.866;4.366;2022-11-28T07:54:28;1.80;;;1.42;;
14486;SDS011;7329;50.866;4.366;2022-11-28T07:56:31;2.17;;;1.73;;
14486;SDS011;7329;50.866;4.366;2022-11-28T07:58:34;2.20;;;1.60;;
14486;SDS011;7329;50.866;4.366;2022-11-28T08:00:39;5.68;;;1.80;;
14486;SDS011;7329;50.866;4.366;2022-11-28T08:02:42;2.25;;;1.65;;
14486;SDS011;7329;50.866;4.366;2022-11-28T08:04:44;2.70;;;1.90;;
14486;SDS011;7329;50.866;4.366;2022-11-28T08:06:46;4.22;;;2.00;;
14486;SDS011;7329;50.866;4.366;2022-11-28T08:08:49;9.02;;;2.00;;
14486;SDS011;7329;50.866;4.366;2022-11-28T08:10:55;7.40;;;2.00;;
14486;SDS011;7329;50.866;4.366;2022-11-28T08:12:59;3.65;;;2.05;;
14486;SDS011;7329;50.866;4.366;2022-11-28T08:15:04;6.28;;;2.22;;
14486;SDS011;7329;50.866;4.366;2022-11-28T08:17:08;8.38;;;2.15;;
14486;SDS011;7329;50.866;4.366;2022-11-28T08:19:11;1.98;;;1.70;;
14486;SDS011;7329;50.866;4.366;2022-11-28T08:21:14;5.75;;;2.10;;
14486;SDS011;7329;50.866;4.366;2022-11-28T08:23:18;5.00;;;3.30;;
14486;SDS011;7329;50.866;4.366;2022-11-28T08:25:20;3.85;;;3.20;;
14486;SDS011;7329;50.866;4.366;2022-11-28T08:27:23;4.53;;;2.20;;
14486;SDS011;7329;50.866;4.366;2022-11-28T08:29:25;3.70;;;2.05;;
14486;SDS011;7329;50.866;4.366;2022-11-28T08:31:29;3.33;;;1.90;;
14486;SDS011;7329;50.866;4.366;2022-11-28T08:33:34;4.82;;;2.40;;
14486;SDS011;7329;50.866;4.366;2022-11-28T08:35:39;3.83;;;2.40;;
14486;SDS011;7329;50.866;4.366;2022-11-28T08:37:41;2.63;;;1.70;;
14486;SDS011;7329;50.866;4.366;2022-11-28T08:39:44;8.00;;;1.98;;
14486;SDS011;7329;50.866;4.366;2022-11-28T08:41:46;15.43;;;2.85;;
14486;SDS011;7329;50.866;4.366;2022-11-28T08:43:49;8.80;;;2.25;;
14486;SDS011;7329;50.866;4.366;2022-11-28T08:45:51;3.70;;;2.40;;
14486;SDS011;7329;50.866;4.366;2022-11-28T08:47:54;6.03;;;2.50;;
14486;SDS011;7329;50.866;4.366;2022-11-28T08:49:57;8.88;;;2.00;;
14486;SDS011;7329;50.866;4.366;2022-11-28T08:52:00;6.43;;;2.03;;
14486;SDS011;7329;50.866;4.366;2022-11-28T08:54:03;4.03;;;1.95;;
14486;SDS011;7329;50.866;4.366;2022-11-28T08:56:06;6.82;;;2.80;;
14486;SDS011;7329;50.866;4.366;2022-11-28T08:58:09;5.18;;;2.47;;
14486;SDS011;7329;50.866;4.366;2022-11-28T09:00:12;4.55;;;2.80;;
14486;SDS011;7329;50.866;4.366;2022-11-28T09:02:15;6.97;;;2.80;;
14486;SDS011;7329;50.866;4.366;2022-11-28T09:04:19;5.15;;;2.13;;
14486;SDS011;7329;50.866;4.366;2022-11-28T09:06:24;5.63;;;2.20;;
14486;SDS011;7329;50.866;4.366;2022-11-28T09:08:26;4.07;;;1.95;;
14486;SDS011;7329;50.866;4.366;2022-11-28T09:10:29;4.10;;;2.03;;
14486;SDS011;7329;50.866;4.366;2022-11-28T09:12:31;3.15;;;2.40;;
14486;SDS011;7329;50.866;4.366;2022-11-28T09:14:34;3.58;;;2.28;;
14486;SDS011;7329;50.866;4.366;2022-11-28T09:16:37;2.75;;;2.08;;
14486;SDS011;7329;50.866;4.366;2022-11-28T09:18:39;4.60;;;2.00;;
14486;SDS011;7329;50.866;4.366;2022-11-28T09:20:42;5.57;;;2.58;;
14486;SDS011;7329;50.866;4.366;2022-11-28T09:22:46;5.85;;;2.60;;
14486;SDS011;7329;50.866;4.366;2022-11-28T09:24:48;3.55;;;2.22;;
14486;SDS011;7329;50.866;4.366;2022-11-28T09:26:52;3.22;;;1.95;;
14486;SDS011;7329;50.866;4.366;2022-11-28T09:28:55;17.05;;;2.38;;
14486;SDS011;7329;50.866;4.366;2022-11-28T09:31:00;5.80;;;2.30;;
14486;SDS011;7329;50.866;4.366;2022-11-28T09:33:04;6.55;;;2.58;;
14486;SDS011;7329;50.866;4.366;2022-11-28T09:35:08;8.25;;;2.95;;
14486;SDS011;7329;50.866;4.366;2022-11-28T09:37:11;5.22;;;2.13;;
14486;SDS011;7329;50.866;4.366;2022-11-28T09:39:14;5.95;;;2.13;;
14486;SDS011;7329;50.866;4.366;2022-11-28T09:43:40;10.60;;;2.50;;
14486;SDS011;7329;50.866;4.366;2022-11-28T09:45:47;17.65;;;2.83;;
14486;SDS011;7329;50.866;4.366;2022-11-28T09:47:52;13.48;;;2.95;;
14486;SDS011;7329;50.866;4.366;2022-11-28T09:49:59;7.30;;;2.65;;
14486;SDS011;7329;50.866;4.366;2022-11-28T09:52:09;14.75;;;2.55;;
14486;SDS011;7329;50.866;4.366;2022-11-28T09:54:24;6.82;;;2.63;;
14486;SDS011;7329;50.866;4.366;2022-11-28T09:56:35;11.77;;;2.47;;
14486;SDS011;7329;50.866;4.366;2022-11-28T09:58:38;8.77;;;3.20;;
14486;SDS011;7329;50.866;4.366;2022-11-28T10:00:46;9.48;;;3.92;;
14486;SDS011;7329;50.866;4.366;2022-11-28T10:03:00;11.93;;;3.42;;
14486;SDS011;7329;50.866;4.366;2022-11-28T10:05:16;18.52;;;4.05;;
14486;SDS011;7329;50.866;4.366;2022-11-28T10:07:25;10.85;;;3.72;;
14486;SDS011;7329;50.866;4.366;2022-11-28T10:09:41;10.68;;;3.80;;
14486;SDS011;7329;50.866;4.366;2022-11-28T10:11:53;12.23;;;3.47;;
14486;SDS011;7329;50.866;4.366;2022-11-28T10:14:13;7.00;;;3.55;;
14486;SDS011;7329;50.866;4.366;2022-11-28T10:16:44;8.32;;;3.03;;
14486;SDS011;7329;50.866;4.366;2022-11-28T10:18:53;8.52;;;2.83;;
14486;SDS011;7329;50.866;4.366;2022-11-28T10:20:59;5.15;;;2.38;;
14486;SDS011;7329;50.866;4.366;2022-11-28T10:23:05;10.23;;;3.20;;
14486;SDS011;7329;50.866;4.366;2022-11-28T10:25:19;4.72;;;2.40;;
14486;SDS011;7329;50.866;4.366;2022-11-28T10:27:28;6.53;;;2.42;;
14486;SDS011;7329;50.866;4.366;2022-11-28T10:29:37;8.50;;;2.67;;
14486;SDS011;7329;50.866;4.366;2022-11-28T10:31:46;6.13;;;2.47;;
14486;SDS011;7329;50.866;4.366;2022-11-28T10:33:51;7.00;;;2.42;;
14486;SDS011;7329;50.866;4.366;2022-11-28T10:35:57;4.80;;;2.85;;
14486;SDS011;7329;50.866;4.366;2022-11-28T10:38:01;6.93;;;2.33;;
14486;SDS011;7329;50.866;4.366;2022-11-28T10:40:15;8.25;;;2.92;;
14486;SDS011;7329;50.866;4.366;2022-11-28T10:42:25;3.70;;;2.38;;
14486;SDS011;7329;50.866;4.366;2022-11-28T10:44:35;6.40;;;2.08;;
14486;SDS011;7329;50.866;4.366;2022-11-28T10:46:48;5.00;;;2.33;;
14486;SDS011;7329;50.866;4.366;2022-11-28T10:48:58;6.30;;;1.90;;
14486;SDS011;7329;50.866;4.366;2022-11-28T10:51:14;7.28;;;2.50;;
14486;SDS011;7329;50.866;4.366;2022-11-28T10:53:33;4.85;;;2.45;;
14486;SDS011;7329;50.866;4.366;2022-11-28T10:58:15;6.20;;;2.47;;
14486;SDS011;7329;50.866;4.366;2022-11-28T11:00:24;4.53;;;2.55;;
14486;SDS011;7329;50.866;4.366;2022-11-28T11:02:29;7.68;;;2.25;;
14486;SDS011;7329;50.866;4.366;2022-11-28T11:04:36;4.65;;;2.10;;
14486;SDS011;7329;50.866;4.366;2022-11-28T11:06:39;12.40;;;2.60;;
14486;SDS011;7329;50.866;4.366;2022-11-28T11:08:43;7.00;;;1.90;;
14486;SDS011;7329;50.866;4.366;2022-11-28T11:10:49;10.60;;;2.60;;
14486;SDS011;7329;50.866;4.366;2022-11-28T11:12:53;11.43;;;2.47;;
14486;SDS011;7329;50.866;4.366;2022-11-28T11:14:56;2.95;;;2.10;;
14486;SDS011;7329;50.866;4.366;2022-11-28T11:16:59;6.38;;;4.05;;
14486;SDS011;7329;50.866;4.366;2022-11-28T11:19:01;9.70;;;3.90;;
14486;SDS011;7329;50.866;4.366;2022-11-28T11:21:05;8.43;;;3.33;;
14486;SDS011;7329;50.866;4.366;2022-11-28T11:23:16;7.45;;;2.58;;
14486;SDS011;7329;50.866;4.366;2022-11-28T11:25:22;6.38;;;2.50;;
14486;SDS011;7329;50.866;4.366;2022-11-28T11:27:32;5.05;;;2.53;;
14486;SDS011;7329;50.866;4.366;2022-11-28T11:29:38;12.93;;;2.55;;
14486;SDS011;7329;50.866;4.366;2022-11-28T11:31:42;10.48;;;2.88;;
14486;SDS011;7329;50.866;4.366;2022-11-28T11:34:00;11.13;;;3.00;;
14486;SDS011;7329;50.866;4.366;2022-11-28T11:36:17;13.60;;;3.05;;
14486;SDS011;7329;50.866;4.366;2022-11-28T11:38:26;5.38;;;2.45;;
14486;SDS011;7329;50.866;4.366;2022-11-28T11:40:30;4.88;;;2.28;;
14486;SDS011;7329;50.866;4.366;2022-11-28T11:42:32;4.13;;;2.30;;
14486;SDS011;7329;50.866;4.366;2022-11-28T11:44:34;6.10;;;2.58;;
14486;SDS011;7329;50.866;4.366;2022-11-28T11:46:50;6.03;;;2.15;;
14486;SDS011;7329;50.866;4.366;2022-11-28T11:48:52;6.95;;;2.42;;
14486;SDS011;7329;50.866;4.366;2022-11-28T11:50:55;5.00;;;2.33;;
14486;SDS011;7329;50.866;4.366;2022-11-28T11:53:05;6.90;;;2.40;;
14486;SDS011;7329;50.866;4.366;2022-11-28T11:55:14;4.20;;;2.10;;
14486;SDS011;7329;50.866;4.366;2022-11-28T11:57:17;5.05;;;2.30;;
14486;SDS011;7329;50.866;4.366;2022-11-28T11:59:22;4.15;;;1.95;;
14486;SDS011;7329;50.866;4.366;2022-11-28T12:01:29;5.05;;;2.10;;
14486;SDS011;7329;50.866;4.366;2022-11-28T12:03:37;5.28;;;2.28;;
14486;SDS011;7329;50.866;4.366;2022-11-28T12:05:45;5.18;;;2.00;;
14486;SDS011;7329;50.866;4.366;2022-11-28T12:07:53;6.70;;;2.55;;
14486;SDS011;7329;50.866;4.366;2022-11-28T12:10:00;8.60;;;2.28;;
14486;SDS011;7329;50.866;4.366;2022-11-28T12:12:06;5.47;;;2.03;;
14486;SDS011;7329;50.866;4.366;2022-11-28T12:14:25;5.20;;;2.50;;
14486;SDS011;7329;50.866;4.366;2022-11-28T12:16:32;4.60;;;2.30;;
14486;SDS011;7329;50.866;4.366;2022-11-28T12:18:49;4.95;;;2.45;;
14486;SDS011;7329;50.866;4.366;2022-11-28T12:21:05;3.35;;;2.08;;
14486;SDS011;7329;50.866;4.366;2022-11-28T12:23:23;3.95;;;1.90;;
14486;SDS011;7329;50.866;4.366;2022-11-28T12:25:36;3.70;;;2.05;;
14486;SDS011;7329;50.866;4.366;2022-11-28T12:27:55;5.13;;;1.98;;
14486;SDS011;7329;50.866;4.366;2022-11-28T12:30:06;7.95;;;2.50;;
14486;SDS011;7329;50.866;4.366;2022-11-28T12:32:23;5.15;;;2.00;;
14486;SDS011;7329;50.866;4.366;2022-11-28T12:34:37;4.78;;;2.10;;
14486;SDS011;7329;50.866;4.366;2022-11-28T12:36:53;4.18;;;1.80;;
14486;SDS011;7329;50.866;4.366;2022-11-28T12:39:07;4.32;;;2.40;;
14486;SDS011;7329;50.866;4.366;2022-11-28T12:41:21;3.22;;;2.00;;
14486;SDS011;7329;50.866;4.366;2022-11-28T12:43:35;4.28;;;2.33;;
14486;SDS011;7329;50.866;4.366;2022-11-28T12:45:47;5.20;;;2.28;;
14486;SDS011;7329;50.866;4.366;2022-11-28T12:47:58;7.13;;;2.33;;
14486;SDS011;7329;50.866;4.366;2022-11-28T12:50:14;3.88;;;2.30;;
14486;SDS011;7329;50.866;4.366;2022-11-28T12:52:29;5.40;;;2.00;;
14486;SDS011;7329;50.866;4.366;2022-11-28T12:54:41;4.25;;;2.30;;
14486;SDS011;7329;50.866;4.366;2022-11-28T12:56:53;6.95;;;2.70;;